Αναφορές METAR Αεροδρομίων

 

LGTS - THESSALONIKI - GREECE
Ενημερώθηκε: 21/05/2024 04:20
Αραιές Νεφώσεις
Αραιές Νεφώσεις
 Ανεμος από varies
Ανεμος: varies 6 km/h
Θερμοκρασία: 17°C
Σημείο Δρόσου: 15°C
Υγρασία: 88%
Βαρόμετρο: 1015 hPa
Clouds: Αραιές Νεφώσεις
Visibility: 10 km
Cloud details: Αραιές Νεφώσεις 762 m
2024/05/21 01:20 LGTS 210120Z VRB03KT 9999 FEW025 17/15 Q1015 NOSIG
LGLR - LARTISA - GREECE
Ενημερώθηκε: 21/05/2024 04:50
Αραιές Νεφώσεις
Αραιές Νεφώσεις
 Ανεμος από calm
Ανεμος: Απνοια
Θερμοκρασία: 15°C
Σημείο Δρόσου: 12°C
Υγρασία: 82%
Βαρόμετρο: 1014 hPa
Clouds: Αραιές Νεφώσεις
Visibility: 10 km
Cloud details: Αραιές Νεφώσεις 2743 m
2024/05/21 01:50 LGLR 210150Z 00000KT 9999 FEW090 15/12 Q1014 RMK SCT180 BLU
 
LGKZ - KOZANI - GREECE
Ενημερώθηκε: 21/05/2024 04:50

 Ανεμος από varies
Ανεμος: varies 4 km/h
Θερμοκρασία: 14°C
Σημείο Δρόσου: 14°C
Υγρασία: 100%
Βαρόμετρο: 1016 hPa
2024/05/21 01:50 LGKZ 210150Z AUTO VRB02KT //// // ////// 14/14 Q1016 RE//
LGKV - KAVALA - GREECE
Ενημερώθηκε: 20/05/2024 21:20
NOT Current
Μερικώς νεφελώδης
Μερικώς νεφελώδης
 Ανεμος από calm
Ανεμος: Απνοια
Θερμοκρασία: 20°C
Σημείο Δρόσου: 16°C
Υγρασία: 78%
Βαρόμετρο: 1014 hPa
Clouds: Μερικώς νεφελώδης
Visibility: 10 km
Cloud details: Αραιές Νεφώσεις 914 m
Μερικώς νεφελώδης 2438 m
2024/05/20 18:20 LGKV 201820Z 00000KT 9999 FEW030 SCT080 20/16 Q1014
 
LGIO - IOANNINA - GREECE
Ενημερώθηκε: 21/05/2024 04:50

 Ανεμος από calm
Ανεμος: Απνοια
Θερμοκρασία: 15°C
Σημείο Δρόσου: 15°C
Υγρασία: 100%
Βαρόμετρο: 1013 hPa
2024/05/21 01:50 LGIO 210150Z AUTO 00000KT //// // ////// 15/15 Q1013 RE//
LGBL - BOLOS - GREECE
Ενημερώθηκε: 21/05/2024 04:50
Αίθριος
Αίθριος
 Ανεμος από calm
Ανεμος: Απνοια
Θερμοκρασία: 15°C
Σημείο Δρόσου: 14°C
Υγρασία: 94%
Βαρόμετρο: 1014 hPa
Περίληψη: Αίθριος
Visibility: greater than 10 km
2024/05/21 01:50 LGBL 210150Z 00000KT CAVOK 15/14 Q1014
 
LGMT - MITILINI - GREECE
Ενημερώθηκε: 20/05/2024 23:50
NOT Current
Αίθριος
Αίθριος
 Ανεμος από calm
Ανεμος: Απνοια
Θερμοκρασία: 20°C
Σημείο Δρόσου: 15°C
Υγρασία: 73%
Βαρόμετρο: 1013 hPa
Περίληψη: Αίθριος
Visibility: greater than 10 km
2024/05/20 20:50 LGMT 202050Z 00000KT CAVOK 20/15 Q1013
LGAV - ATHENS - GREECE
Ενημερώθηκε: 21/05/2024 04:50
Αίθριος
Αίθριος
 Ανεμος από varies
Ανεμος: varies 4 km/h
Θερμοκρασία: 16°C
Σημείο Δρόσου: 11°C
Υγρασία: 72%
Βαρόμετρο: 1013 hPa
Περίληψη: Αίθριος
Visibility: greater than 10 km
2024/05/21 01:50 LGAV 210150Z VRB02KT CAVOK 16/11 Q1013 NOSIG
 
LGRP - RODOS - GREECE
Ενημερώθηκε: 21/05/2024 04:50
Αίθριος
Αίθριος
 Ανεμος από ΔΝΔ
Ανεμος: ΔΝΔ 17 km/h
Θερμοκρασία: 23°C
Σημείο Δρόσου: 16°C
Υγρασία: 65%
Βαρόμετρο: 1010 hPa
Περίληψη: Αίθριος
Visibility: greater than 10 km
2024/05/21 01:50 LGRP 210150Z 25009KT CAVOK 23/16 Q1010 NOSIG
LGIR - HRAKLIO/KRITI - GREECE
Ενημερώθηκε: 21/05/2024 04:50
Αίθριος
Αίθριος
 Ανεμος από varies
Ανεμος: varies 6 km/h
Θερμοκρασία: 18°C
Σημείο Δρόσου: 15°C
Υγρασία: 83%
Βαρόμετρο: 1013 hPa
Περίληψη: Αίθριος
Visibility: greater than 10 km
2024/05/21 01:50 LGIR 210150Z VRB03KT CAVOK 18/15 Q1013 NOSIG
 
LGMK - MIKONOS - GREECE
Ενημερώθηκε: 21/05/2024 04:50
Αίθριος
Αίθριος
 Ανεμος από ΒΒΑ
Ανεμος: ΒΒΑ 30 km/h
Θερμοκρασία: 20°C
Σημείο Δρόσου: 11°C
Υγρασία: 56%
Βαρόμετρο: 1012 hPa
Περίληψη: Αίθριος
Visibility: greater than 10 km
2024/05/21 01:50 LGMK 210150Z 02016KT CAVOK 20/11 Q1012
LGKR - KERKIRA - GREECE
Ενημερώθηκε: 21/05/2024 04:50
Αραιές Νεφώσεις
Αραιές Νεφώσεις
 Ανεμος από Δ
Ανεμος: Δ 7 km/h
Θερμοκρασία: 21°C
Σημείο Δρόσου: 19°C
Υγρασία: 88%
Βαρόμετρο: 1009 hPa
Clouds: Αραιές Νεφώσεις
Visibility: 10 km
Cloud details: Αραιές Νεφώσεις 457 m
2024/05/21 01:50 LGKR 210150Z 26004KT 9999 FEW015 21/19 Q1009 NOSIG